Time;durP1;ratioP1;P1;durP2;ratioP2;P2;SDS_P1;SDS_P2;PMS_P1;PMS_P2;Temp;Humidity;BMP_temperature;BMP_pressure;BME280_temperature;BME280_humidity;BME280_pressure;Samples;Min_cycle;Max_cycle;Signal;HPM_P1;HPM_P2
2021/04/12 04:16:34;;;;;;;13.03;11.48;;;;;;;10.70;49.34;94922.25;827349;71;32844;-81
2021/04/12 04:31:27;;;;;;;13.20;9.85;;;;;;;10.57;47.20;94938.12;828583;71;32207;-79
2021/04/12 04:46:40;;;;;;;17.05;10.48;;;;;;;10.48;47.83;94935.05;827400;71;33128;-78
2021/04/12 05:01:38;;;;;;;17.92;10.20;;;;;;;10.48;47.57;94936.36;826644;71;31471;-80
2021/04/12 05:31:46;;;;;;;13.48;10.50;;;;;;;10.80;47.65;94931.87;826571;71;33255;-78
2021/04/12 05:46:16;;;;;;;15.75;11.68;;;;;;;10.80;47.11;94892.50;826533;71;30160;-79
2021/04/12 06:01:56;;;;;;;14.05;12.58;;;;;;;11.27;46.45;94929.53;805057;72;33658;-79
2021/04/12 06:16:54;;;;;;;17.77;12.80;;;;;;;11.66;46.07;94920.64;833561;71;33277;-79
2021/04/12 06:31:38;;;;;;;13.15;11.75;;;;;;;;;;831624;70;33137;-77
2021/04/12 06:46:39;;;;;;;12.98;11.08;;;;;;;12.85;43.39;94920.42;824967;71;30708;-79
2021/04/12 07:01:37;;;;;;;17.65;13.55;;;;;;;14.04;40.72;94915.14;827613;71;30258;-78
2021/04/12 07:16:26;;;;;;;14.50;13.00;;;;;;;15.88;38.09;94919.43;833401;71;33455;-78
2021/04/12 07:31:51;;;;;;;16.32;11.55;;;;;;;18.29;34.31;94905.34;820407;70;32990;-76
2021/04/12 07:46:31;;;;;;;13.32;10.82;;;;;;;19.68;31.27;94895.56;827496;71;32728;-77
2021/04/12 08:01:26;;;;;;;14.47;12.58;;;;;;;19.80;31.04;94870.27;826562;71;32808;-76
2021/04/12 08:16:31;;;;;;;13.70;10.60;;;;;;;20.61;29.87;94868.86;826679;71;32850;-77
2021/04/12 08:31:41;;;;;;;13.58;11.75;;;;;;;21.87;28.89;94847.15;835057;71;32774;-77
2021/04/12 08:46:52;;;;;;;17.85;14.73;;;;;;;21.45;29.05;94838.47;828574;71;32822;-78
2021/04/12 09:16:35;;;;;;;14.50;13.00;;;;;;;23.35;27.14;94799.07;829623;71;32875;-76
2021/04/12 09:31:45;;;;;;;14.83;13.23;;;;;;;22.88;27.44;94787.47;827464;71;32994;-80
2021/04/12 09:46:33;;;;;;;16.00;12.03;;;;;;;24.45;31.23;94767.20;827310;71;30061;-79
2021/04/12 10:01:18;;;;;;;15.17;12.00;;;;;;;24.07;30.00;94756.30;833496;71;29734;-75
2021/04/12 10:16:12;;;;;;;15.50;13.70;;;;;;;24.55;28.09;94738.41;827715;71;29895;-76
2021/04/12 10:31:30;;;;;;;18.17;14.10;;;;;;;24.10;28.27;94722.83;827454;71;29483;-76
2021/04/12 10:46:24;;;;;;;17.03;12.87;;;;;;;24.44;28.73;94712.02;828721;71;28871;-77
2021/04/12 11:01:21;;;;;;;15.23;13.67;;;;;;;24.25;26.88;94695.59;827009;71;31783;-76
2021/04/12 11:16:23;;;;;;;13.73;12.33;;;;;;;24.41;26.75;94669.83;833120;71;32876;-75
2021/04/12 11:31:27;;;;;;;11.77;10.57;;;;;;;25.12;26.28;94644.59;827265;71;29224;-77
2021/04/12 11:46:33;;;;;;;11.40;9.30;;;;;;;25.25;26.33;94628.37;827465;71;29026;-75
2021/04/12 12:01:43;;;;;;;8.17;7.07;;;;;;;24.68;26.97;94614.67;827831;71;28900;-76
2021/04/12 12:16:36;;;;;;;6.17;5.00;;;;;;;24.04;27.07;94597.53;826664;71;31717;-76
2021/04/12 12:31:32;;;;;;;8.37;5.47;;;;;;;23.93;27.13;94578.11;819990;71;28399;-77
2021/04/12 12:46:15;;;;;;;7.67;6.23;;;;;;;23.95;26.94;94566.45;827840;71;29273;-80
2021/04/12 13:01:16;;;;;;;7.37;5.30;;;;;;;23.47;27.70;94546.30;827529;71;31719;-75
2021/04/12 13:16:19;;;;;;;7.97;5.47;;;;;;;24.73;26.86;94523.80;827923;71;31023;-74
2021/04/12 13:31:20;;;;;;;4.70;4.30;;;;;;;24.99;25.73;94514.69;827798;71;31657;-77
2021/04/12 13:46:32;;;;;;;5.30;4.50;;;;;;;24.64;25.59;94483.15;833161;71;31934;-76
2021/04/12 14:01:18;;;;;;;7.80;5.77;;;;;;;24.00;25.74;94472.27;833430;71;29572;-75
2021/04/12 14:16:23;;;;;;;7.50;4.40;;;;;;;22.59;26.68;94466.80;827871;71;28716;-75
2021/04/12 14:31:33;;;;;;;6.65;4.78;;;;;;;22.30;27.36;94440.28;822339;71;31811;-75
2021/04/12 14:46:25;;;;;;;5.45;4.08;;;;;;;22.07;27.33;94452.38;826585;71;31824;-76
2021/04/12 15:01:47;;;;;;;4.75;4.35;;;;;;;22.18;27.67;94443.95;829253;71;29277;-74
2021/04/12 15:16:39;;;;;;;5.83;4.65;;;;;;;21.92;27.70;94444.75;833150;71;32515;-73
2021/04/12 15:31:25;;;;;;;5.12;3.92;;;;;;;21.77;27.97;94434.98;833242;71;31789;-74
2021/04/12 15:46:23;;;;;;;9.45;5.58;;;;;;;21.34;30.13;94432.42;819335;71;32624;-74
2021/04/12 16:01:22;;;;;;;8.45;6.10;;;;;;;20.89;30.84;94425.98;823063;71;31298;-74
2021/04/12 16:16:24;;;;;;;7.25;6.05;;;;;;;20.51;31.35;94426.78;833301;71;29842;-74
2021/04/12 16:31:36;;;;;;;12.00;7.05;;;;;;;20.14;32.44;94415.98;825630;71;32270;-73
2021/04/12 16:46:41;;;;;;;12.33;6.90;;;;;;;19.68;33.49;94403.78;827589;71;31607;-74
2021/04/12 17:01:35;;;;;;;19.37;9.38;;;;;;;19.05;34.73;94420.59;827600;71;28634;-73
2021/04/12 17:31:20;;;;;;;14.98;10.30;;;;;;;18.46;35.92;94442.60;820693;71;31832;-76
